Share

Montague, CA (96064)

ROUND MOUNTAIN (CDF) (KCAMODOC4) Elev 4639 ft | 41.42 °N, 121.46 °W | Change Station

Current weather conditions updated 12 minutes ago

Clear
Clear
57.0 °F
Feels Like 57.0 °F
N
5.0
Wind Variable Wind from ESE
Sunrise 6:22 AM
Sunset 7:51 PM
Moon Waning Gibbous

Today is forecast to be Cooler than yesterday.

Pressure 30.01 in
Visibility 10.0 miles
Clouds Clear
Dew Point 25 °F
Humidity 29%
Rainfall -999.00 in
Snow Depth Not available.
UV 10 out of 16
Pollen 8.30 out of 12
Air Quality Not available.
Flu Activity Sporadic
METAR KMHS 181956Z AUTO VRB03KT 10SM CLR 17/02 A2999 RMK AO2 SLP160 T01720017

More Conditions Fewer Conditions

Pressure 30.01 in
Visibility 10.0 miles
Clouds Clear
Dew Point 25 °F
Humidity 29%
Rainfall -999.00 in
Snow Depth Not available.
UV 10 out of 16
Pollen 8.30 out of 12
Air Quality Not available.
Flu Activity Sporadic
METAR KMHS 181956Z AUTO VRB03KT 10SM CLR 17/02 A2999 RMK AO2 SLP160 T01720017

More Conditions Fewer Conditions

10-Day Weather Forecast

Almanac

Astronomy

Apr. 18, 2014 Rise Set
Actual Time 6:22 AM PDT 7:51 PM PDT
Civil Twilight 5:53 AM PDT 8:20 PM PDT
Nautical Twilight 5:19 AM PDT 8:55 PM PDT
Astronomical Twilight 4:42 AM PDT 9:32 PM PDT
Moon 11:43 PM PDT 8:48 AM PDT
Length of Visible Light 14h 26m
Length of Day
13h 28m
Tomorrow will be 2m 38s longer.
Waning Gibbous, 86% of the Moon is Illuminated
Today
Waning Gibbous
Apr 22
Last Quarter
Apr 29
New
May 6
First Quarter
May 14
Full

Today's Extremes

State Highs State Lows

Community

  • What's for Lunch?
    What's for Lunch?
  • SUNRISE THROUGH THE TREES.
    SUNRISE THROUGH THE TREES.
  • Dog Wood Blossoms
    Dog Wood Blossoms
  • Morning Light
    Morning Light
  • New Day
    New Day

WunderPhotos

Upload Photos

1,702,495 photos uploaded!

WunderBlogs® & News

Nearby

Snow Depth

Station Depth Elevation
Adin Mountain 0 in 6200 ft
Cedar Pass 10 in 7100 ft
Dismal Swamp 40 in 7000 ft
Independence Lake 51 in 8450 ft
CSS Lab 4 in 6900 ft

Coastal Water Temperatures

Place Temperature
No Stations Reporting

Earthquake Activity

City Distance Mag. Time & Date
No recent earthquake activity has been reported nearby.
Minimum magnitude displayed is 2.5.

Nearby Weather Stations

Station Location Temp. Dew Point Humidity Wind Precip. Elev Updated Type
ROUND MOUNTAIN (CDF), Modoc National Forest, CA 57.0 °F 25 °F 29% ESE  at  5.0 mph - / hr 4639 ft 1:34 PM PDT Normal
ASH CREEK (USFS), McCloud, CA 64.0 °F 29 °F 26% NE  at  3.0 mph - / hr 3688 ft 1:45 PM PDT Normal

Show More Stations Show Fewer Stations

What do you think?

We're not finished. Please let us know what you like, what you don't like, and what you are still missing.